KMLU/MLU METAR and TAF weather

Enter ICAO airport designator
Station Type Date Time Source
KMLU METAR 2019/12/09 13:53 UTC NOAA

KMLU 091353Z 19009KT 6SM BR OVC007 18/16 A2986 RMK AO2 SLP112 T01780161


Station Type Date Time Source
KMLU Decoded METAR 2019/12/09 13:53 UTC NOAA

MONROE REGIONAL AIRPORT, LA, United States (KMLU) 32-31N 092-02W 29M
Dec 09, 2019 - 08:53 AM EST / 2019.12.09 1353 UTC
Wind: from the S (190 degrees) at 10 MPH (9 KT):0
Visibility: 6 mile(s):0
Sky conditions: overcast
Weather: mist
Temperature: 64.0 F (17.8 C)
Dew Point: 61.0 F (16.1 C)
Relative Humidity: 89%
Pressure (altimeter): 29.86 in. Hg (1011 hPa)
ob: KMLU 091353Z 19009KT 6SM BR OVC007 18/16 A2986 RMK AO2 SLP112 T01780161
cycle: 14

Station Type Date Time Source
KMLU TAF 2019/12/09 12:48 UTC NOAA

TAF KMLU 091145Z 0912/1012 19008KT 4SM BR OVC005
TEMPO 0912/0915 6SM BR FEW005 BKN010
FM091500 21011G17KT P6SM OVC015
FM091900 22013G20KT P6SM VCSH BKN025 BKN100
FM100000 25005KT 6SM -SHRA BKN060
FM100300 28007KT P6SM OVC050
FM100600 34007KT P6SM OVC030
FM100900 01017KT 5SM -TSRA OVC025CB

Example: see airport list